Clarkston, WA

12:12 AM PDT on August 31, 2014 (GMT -0700)
Clarkston Heights | Change Station
CLOSE
Current Station
Personal Weather Station
Location: Clarkston, WA
Elevation: 1390 ft
Nearby Weather Stations

Elev 1390 ft 46.37 °N, 117.10 °W | Updated 2 seconds ago

Clear
Clear
61.5 °F
Feels Like 61.5 °F
N
0.0
Wind Variable Wind from SSE
Gusts 2.2 mph

Today
High -- | Low -- °F
--% Chance of Precip.
Yesterday
High -- | Low -- °F
Precip. -- in
6:07 AM 7:28 PM
Waxing Crescent, 28% visible
Pressure 29.86 in
Visibility 10.0 miles
Clouds Clear
Dew Point 47 °F
Humidity 58%
Rainfall 0.00 in
Snow Depth Not available.
UV 0 out of 12
Pollen 7.40 out of 12
Air Quality Not available.
Flu Activity Not available.
METAR KLWS 310656Z AUTO 18009KT 10SM CLR 18/09 A2988 RMK AO2 SLP109 T01780089

More Conditions Fewer Conditions

Pressure 29.86 in
Visibility 10.0 miles
Clouds Clear
Dew Point 47 °F
Humidity 58%
Rainfall 0.00 in
Snow Depth Not available.
UV 0 out of 12
Pollen 7.40 out of 12
Air Quality Not available.
Flu Activity Not available.
METAR KLWS 310656Z AUTO 18009KT 10SM CLR 18/09 A2988 RMK AO2 SLP109 T01780089

More Conditions Fewer Conditions

10-Day Weather Forecast

Almanac

Astronomy

Aug. 31, 2014 Rise Set
Actual Time 6:07 AM PDT 7:28 PM PDT
Civil Twilight 5:36 AM PDT 7:59 PM PDT
Nautical Twilight 4:58 AM PDT 8:37 PM PDT
Astronomical Twilight 4:17 AM PDT 9:17 PM PDT
Moon 12:19 PM PDT 10:24 PM PDT
Length of Visible Light 14h 23m
Length of Day
13h 21m
Tomorrow will be 3m 9s shorter.
Waxing Crescent, 28% of the Moon is Illuminated
Today
Waxing Crescent
Sep 2
First Quarter
Sep 8
Full
Sep 15
Last Quarter
Sep 24
New

Community

WunderPhotos

Upload Photos

1,748,806 photos uploaded!

Nearby

Snow Depth

Station Depth Elevation
Sourdough Gulch 0 in 4000 ft
Spruce Springs 1 in 5700 ft
Touchet 0 in 5530 ft
Quartz Peak 1 in 4700 ft
Bunchgrass Meadow 0 in 5000 ft

Earthquake Activity

City Distance Mag. Time & Date
No recent earthquake activity has been reported nearby.
Minimum magnitude displayed is 2.5.

Coastal Water Temperatures

Place Temperature
No Stations Reporting

Nearby Weather Stations